createdAt,value
2018-12-05T00:01:41.673Z,28.87
2018-12-05T00:04:11.055Z,31.10
2018-12-05T00:06:40.305Z,23.77
2018-12-05T00:09:09.601Z,23.37
2018-12-05T00:11:39.411Z,21.63
2018-12-05T00:14:08.907Z,23.77
2018-12-05T00:16:38.164Z,24.77
2018-12-05T00:19:07.440Z,22.27
2018-12-05T00:21:36.960Z,24.63
2018-12-05T00:24:06.174Z,21.10
2018-12-05T00:26:35.654Z,20.07
2018-12-05T00:29:04.904Z,18.80
2018-12-05T00:31:34.434Z,20.23
2018-12-05T00:34:03.690Z,28.97
2018-12-05T00:36:33.108Z,20.77
2018-12-05T00:39:02.819Z,19.87
2018-12-05T00:41:34.363Z,28.50
2018-12-05T00:44:03.772Z,17.90
2018-12-05T00:46:33.189Z,27.47
2018-12-05T00:49:02.434Z,17.43
2018-12-05T00:51:32.005Z,22.40
2018-12-05T00:54:01.261Z,22.97
2018-12-05T00:56:30.822Z,22.73
2018-12-05T00:59:00.083Z,21.33
2018-12-05T01:01:29.355Z,20.60
2018-12-05T01:03:58.717Z,15.37
2018-12-05T01:06:28.167Z,23.77
2018-12-05T01:08:57.429Z,19.33
2018-12-05T01:11:26.827Z,19.03
2018-12-05T01:13:56.115Z,24.17
2018-12-05T01:16:25.618Z,13.77
2018-12-05T01:18:55.057Z,19.80
2018-12-05T01:21:24.628Z,14.03
2018-12-05T01:23:53.847Z,19.10
2018-12-05T01:26:23.234Z,16.43
2018-12-05T01:28:53.649Z,14.30
2018-12-05T01:31:22.934Z,17.37
2018-12-05T01:33:52.294Z,23.83
2018-12-05T01:36:21.760Z,25.00
2018-12-05T01:38:51.034Z,16.73
2018-12-05T01:41:20.584Z,17.77
2018-12-05T01:43:49.840Z,21.07
2018-12-05T01:46:19.373Z,17.40
2018-12-05T01:48:48.686Z,19.10
2018-12-05T01:51:18.174Z,19.60
2018-12-05T01:53:47.458Z,14.70
2018-12-05T01:56:17.006Z,17.93
2018-12-05T01:58:46.284Z,14.97
2018-12-05T02:01:15.806Z,17.17
2018-12-05T02:03:45.096Z,16.70
2018-12-05T02:06:15.253Z,19.07
2018-12-05T02:08:44.734Z,14.87
2018-12-05T02:11:14.222Z,20.10
2018-12-05T02:13:43.548Z,19.47
2018-12-05T02:16:13.110Z,16.60
2018-12-05T02:18:42.544Z,16.47
2018-12-05T02:21:12.188Z,22.17
2018-12-05T02:23:41.456Z,19.00
2018-12-05T02:26:10.860Z,13.37
2018-12-05T02:28:40.167Z,18.43
2018-12-05T02:31:10.382Z,16.77
2018-12-05T02:33:39.766Z,15.60
2018-12-05T02:36:09.450Z,14.27
2018-12-05T02:38:38.772Z,20.27
2018-12-05T02:41:08.118Z,21.83
2018-12-05T02:43:37.346Z,19.20
2018-12-05T02:46:06.632Z,17.30
2018-12-05T02:48:35.835Z,17.67
2018-12-05T02:51:05.303Z,17.27
2018-12-05T02:53:34.577Z,20.23
2018-12-05T02:56:03.894Z,14.43
2018-12-05T02:58:33.115Z,19.13
2018-12-05T03:01:02.453Z,16.20
2018-12-05T03:03:31.827Z,19.20
2018-12-05T03:06:01.156Z,18.63
2018-12-05T03:08:30.352Z,17.80
2018-12-05T03:10:59.899Z,17.17
2018-12-05T03:13:29.144Z,16.27
2018-12-05T03:15:58.383Z,17.53
2018-12-05T03:18:27.668Z,19.17
2018-12-05T03:20:57.212Z,13.63
2018-12-05T03:23:26.532Z,15.10
2018-12-05T03:25:55.838Z,17.00
2018-12-05T03:28:25.171Z,13.77
2018-12-05T03:30:54.577Z,18.70
2018-12-05T03:33:23.879Z,18.53
2018-12-05T03:35:53.156Z,17.93
2018-12-05T03:38:22.358Z,15.93
2018-12-05T03:40:51.851Z,13.10
2018-12-05T03:43:21.039Z,17.13
2018-12-05T03:45:50.301Z,15.97
2018-12-05T03:48:19.545Z,12.30
2018-12-05T03:50:48.986Z,22.57
2018-12-05T03:53:18.157Z,15.13
2018-12-05T03:55:47.409Z,14.57
2018-12-05T03:58:16.655Z,14.80
2018-12-05T04:00:45.882Z,15.33
2018-12-05T04:05:47.234Z,16.97
2018-12-05T04:08:16.511Z,13.97
2018-12-05T04:10:45.783Z,19.30
2018-12-05T04:13:15.129Z,14.47
2018-12-05T04:15:44.415Z,17.90
2018-12-05T04:18:13.730Z,15.83
2018-12-05T04:20:42.987Z,17.43
2018-12-05T04:23:12.377Z,14.07
2018-12-05T04:25:42.046Z,21.00
2018-12-05T04:28:11.338Z,14.63
2018-12-05T04:30:40.757Z,17.20
2018-12-05T04:33:11.989Z,15.73
2018-12-05T04:35:41.489Z,15.07
2018-12-05T04:38:10.809Z,13.07
2018-12-05T04:40:40.159Z,14.37
2018-12-05T04:43:09.429Z,15.00
2018-12-05T04:45:38.717Z,16.80
2018-12-05T04:48:07.972Z,12.77
2018-12-05T04:50:37.491Z,13.13
2018-12-05T04:53:06.731Z,15.80
2018-12-05T04:55:36.200Z,16.90
2018-12-05T04:58:05.463Z,18.63
2018-12-05T05:00:35.141Z,17.87
2018-12-05T05:03:04.555Z,21.03
2018-12-05T05:05:34.161Z,15.37
2018-12-05T05:08:03.367Z,16.57
2018-12-05T05:10:32.931Z,18.83
2018-12-05T05:13:02.215Z,14.57
2018-12-05T05:15:31.486Z,13.13
2018-12-05T05:18:00.751Z,16.00
2018-12-05T05:20:30.241Z,15.23
2018-12-05T05:22:59.491Z,15.93
2018-12-05T05:25:29.129Z,11.40
2018-12-05T05:27:58.385Z,13.77
2018-12-05T05:30:27.811Z,17.07
2018-12-05T05:32:57.045Z,24.70
2018-12-05T05:35:26.613Z,21.10
2018-12-05T05:37:55.851Z,16.17
2018-12-05T05:40:25.338Z,19.67
2018-12-05T05:42:54.578Z,15.07
2018-12-05T05:45:23.973Z,13.73
2018-12-05T05:47:53.242Z,16.17
2018-12-05T05:50:22.931Z,13.47
2018-12-05T05:52:52.225Z,29.33
2018-12-05T05:55:21.512Z,18.97
2018-12-05T05:57:51.323Z,14.87
2018-12-05T06:00:20.805Z,18.87
2018-12-05T06:02:50.149Z,22.00
2018-12-05T06:05:19.490Z,20.83
2018-12-05T06:07:48.853Z,16.87
2018-12-05T06:10:18.082Z,19.23
2018-12-05T06:12:47.250Z,14.53
2018-12-05T06:15:16.687Z,16.10
2018-12-05T06:17:45.903Z,16.53
2018-12-05T06:20:15.252Z,14.57
2018-12-05T06:22:44.434Z,17.63
2018-12-05T06:25:14.017Z,13.20
2018-12-05T06:27:43.264Z,17.87
2018-12-05T06:30:12.685Z,15.67
2018-12-05T06:32:41.968Z,19.73
2018-12-05T06:35:11.194Z,20.73
2018-12-05T06:37:40.394Z,20.37
2018-12-05T06:40:09.740Z,17.40
2018-12-05T06:42:38.928Z,15.80
2018-12-05T06:45:08.130Z,19.93
2018-12-05T06:47:37.284Z,28.63
2018-12-05T06:50:07.979Z,21.23
2018-12-05T06:52:37.296Z,14.80
2018-12-05T06:55:07.134Z,18.00
2018-12-05T06:57:36.416Z,17.90
2018-12-05T07:00:08.282Z,19.33
2018-12-05T07:02:38.019Z,24.70
2018-12-05T07:05:07.554Z,21.63
2018-12-05T07:07:36.789Z,18.50
2018-12-05T07:10:06.582Z,19.00
2018-12-05T07:12:35.773Z,19.47
2018-12-05T07:15:05.502Z,14.33
2018-12-05T07:17:34.817Z,20.53
2018-12-05T07:20:07.766Z,19.93
2018-12-05T07:22:37.073Z,17.63
2018-12-05T07:25:06.989Z,19.03
2018-12-05T07:27:36.219Z,16.00
2018-12-05T07:30:05.996Z,21.67
2018-12-05T07:32:35.200Z,18.47
2018-12-05T07:35:05.276Z,19.77
2018-12-05T07:37:34.596Z,22.37
2018-12-05T07:40:04.667Z,21.30
2018-12-05T07:42:33.963Z,22.37
2018-12-05T07:45:03.594Z,16.97
2018-12-05T07:47:32.792Z,26.30
2018-12-05T07:50:03.048Z,23.00
2018-12-05T07:52:32.322Z,16.20
2018-12-05T07:55:01.927Z,23.20
2018-12-05T07:57:31.196Z,23.87
2018-12-05T08:00:00.806Z,20.90
2018-12-05T08:02:30.204Z,23.60
2018-12-05T08:04:59.783Z,19.23
2018-12-05T08:07:28.996Z,19.93
2018-12-05T08:09:58.598Z,22.37
2018-12-05T08:12:27.908Z,20.47
2018-12-05T08:14:57.172Z,20.90
2018-12-05T08:17:26.431Z,21.47
2018-12-05T08:19:55.685Z,17.37
2018-12-05T08:22:24.977Z,20.60
2018-12-05T08:24:54.945Z,15.80
2018-12-05T08:27:24.303Z,23.47
2018-12-05T08:29:53.653Z,21.50
2018-12-05T08:32:23.068Z,20.60
2018-12-05T08:34:52.348Z,17.83
2018-12-05T08:37:21.624Z,15.70
2018-12-05T08:39:51.018Z,19.47
2018-12-05T08:42:20.276Z,17.07
2018-12-05T08:44:49.836Z,19.77
2018-12-05T08:47:19.076Z,20.13
2018-12-05T08:49:48.613Z,20.47
2018-12-05T08:52:18.072Z,20.83
2018-12-05T08:54:47.706Z,22.53
2018-12-05T08:57:16.999Z,16.00
2018-12-05T08:59:46.574Z,15.90
2018-12-05T09:02:15.835Z,15.90
2018-12-05T09:04:45.402Z,14.23
2018-12-05T09:07:14.730Z,15.40
2018-12-05T09:09:44.230Z,12.73
2018-12-05T09:12:13.508Z,18.47
2018-12-05T09:14:43.030Z,20.27
2018-12-05T09:17:12.357Z,21.43
2018-12-05T09:19:41.944Z,18.13
2018-12-05T09:22:11.152Z,13.77
2018-12-05T09:24:40.602Z,17.00
2018-12-05T09:27:09.886Z,15.63
2018-12-05T09:29:39.440Z,14.03
2018-12-05T09:32:08.688Z,19.83
2018-12-05T09:34:38.071Z,13.97
2018-12-05T09:37:07.371Z,14.53
2018-12-05T09:39:37.039Z,16.03
2018-12-05T09:42:06.274Z,14.37
2018-12-05T09:44:35.606Z,12.20
2018-12-05T09:47:04.875Z,17.27
2018-12-05T09:49:34.545Z,15.33
2018-12-05T09:52:03.896Z,14.83
2018-12-05T09:54:33.583Z,25.70
2018-12-05T09:57:02.959Z,18.83
2018-12-05T09:59:32.738Z,18.77
2018-12-05T10:02:02.145Z,20.47
2018-12-05T10:04:31.465Z,18.23
2018-12-05T10:07:00.687Z,16.47
2018-12-05T10:09:30.023Z,15.53
2018-12-05T10:11:59.302Z,14.80
2018-12-05T10:14:28.647Z,15.47
2018-12-05T10:16:57.847Z,17.40
2018-12-05T10:19:27.340Z,23.07
2018-12-05T10:21:56.630Z,19.40
2018-12-05T10:24:26.184Z,22.80
2018-12-05T10:26:55.450Z,23.67
2018-12-05T10:29:24.996Z,14.83
2018-12-05T10:31:54.388Z,16.67
2018-12-05T10:34:23.900Z,17.60
2018-12-05T10:36:53.125Z,14.07
2018-12-05T10:39:22.552Z,12.77
2018-12-05T10:41:52.204Z,15.20
2018-12-05T10:44:21.833Z,20.30
2018-12-05T10:46:51.371Z,16.47
2018-12-05T10:49:21.039Z,13.40
2018-12-05T10:51:50.410Z,16.87
2018-12-05T10:54:20.107Z,22.07
2018-12-05T10:56:49.453Z,18.67
2018-12-05T10:59:18.727Z,19.47
2018-12-05T11:01:53.435Z,18.90
2018-12-05T11:04:28.316Z,18.10
2018-12-05T11:07:02.674Z,16.73
2018-12-05T11:09:37.315Z,18.03
2018-12-05T11:13:10.694Z,13.77
2018-12-05T11:15:45.745Z,17.47
2018-12-05T11:18:20.392Z,18.63
2018-12-05T11:20:55.232Z,16.47
2018-12-05T11:23:29.986Z,19.20
2018-12-05T11:26:01.423Z,20.57
2018-12-05T11:28:30.968Z,18.90
2018-12-05T11:31:00.242Z,18.80
2018-12-05T11:33:29.542Z,13.77
2018-12-05T11:35:59.006Z,24.17
2018-12-05T11:38:28.291Z,16.23
2018-12-05T11:40:57.868Z,17.40
2018-12-05T11:43:27.047Z,17.73
2018-12-05T11:45:56.505Z,16.67
2018-12-05T11:48:25.715Z,17.90
2018-12-05T11:50:55.188Z,14.77
2018-12-05T11:53:24.371Z,21.13
2018-12-05T11:55:53.592Z,15.60
2018-12-05T11:58:22.860Z,16.23
2018-12-05T12:00:52.424Z,21.07
2018-12-05T12:03:21.715Z,21.53
2018-12-05T12:05:53.464Z,21.43
2018-12-05T12:08:22.954Z,21.37
2018-12-05T12:10:52.224Z,16.47
2018-12-05T12:13:21.597Z,15.73
2018-12-05T12:15:51.478Z,22.90
2018-12-05T12:18:20.885Z,20.53
2018-12-05T12:20:50.356Z,18.20
2018-12-05T12:23:19.636Z,19.40
2018-12-05T12:25:49.191Z,20.73
2018-12-05T12:28:18.770Z,20.93
2018-12-05T12:30:48.295Z,15.00
2018-12-05T12:33:17.531Z,17.07
2018-12-05T12:35:47.121Z,22.00
2018-12-05T12:38:16.761Z,24.13
2018-12-05T12:40:46.321Z,20.63
2018-12-05T12:43:15.648Z,20.03
2018-12-05T12:45:45.469Z,24.50
2018-12-05T12:48:16.029Z,16.47
2018-12-05T12:50:45.404Z,21.90
2018-12-05T12:53:14.802Z,20.07
2018-12-05T12:55:44.297Z,19.40
2018-12-05T12:58:13.748Z,19.97
2018-12-05T13:00:43.088Z,18.33
2018-12-05T13:03:12.393Z,25.03
2018-12-05T13:05:41.992Z,19.30
2018-12-05T13:08:11.446Z,23.80
2018-12-05T13:10:40.766Z,19.80
2018-12-05T13:13:10.235Z,23.07
2018-12-05T13:15:39.849Z,18.10
2018-12-05T13:18:09.143Z,20.33
2018-12-05T13:20:38.755Z,25.37
2018-12-05T13:23:08.041Z,16.73
2018-12-05T13:25:37.764Z,19.60
2018-12-05T13:28:07.969Z,18.80
2018-12-05T13:30:37.559Z,19.10
2018-12-05T13:33:07.002Z,21.40
2018-12-05T13:35:36.316Z,21.50
2018-12-05T13:38:05.580Z,21.47
2018-12-05T13:40:35.339Z,23.30
2018-12-05T13:43:04.879Z,20.63
2018-12-05T13:45:34.621Z,17.33
2018-12-05T13:48:04.000Z,21.63
2018-12-05T13:50:33.462Z,22.23
2018-12-05T13:53:02.827Z,19.73
2018-12-05T13:55:32.345Z,18.77
2018-12-05T13:58:01.646Z,25.07
2018-12-05T14:00:32.220Z,17.67
2018-12-05T14:03:01.458Z,20.60
2018-12-05T14:05:30.918Z,18.70
2018-12-05T14:08:00.428Z,25.47
2018-12-05T14:10:29.981Z,23.87
2018-12-05T14:12:59.575Z,26.83
2018-12-05T14:15:28.913Z,27.80
2018-12-05T14:18:01.590Z,20.10
2018-12-05T14:20:29.534Z,29.73
2018-12-05T14:22:58.897Z,24.33
2018-12-05T14:25:28.557Z,20.63
2018-12-05T14:27:57.915Z,27.00
2018-12-05T14:30:27.304Z,21.47
2018-12-05T14:32:56.722Z,21.63
2018-12-05T14:35:26.252Z,22.33
2018-12-05T14:37:55.564Z,23.37
2018-12-05T14:40:24.968Z,18.33
2018-12-05T14:42:54.250Z,22.00
2018-12-05T14:45:23.562Z,26.73
2018-12-05T14:47:52.886Z,30.00
2018-12-05T14:50:22.179Z,26.63
2018-12-05T14:52:51.510Z,25.03
2018-12-05T14:55:20.836Z,28.70
2018-12-05T14:57:50.160Z,30.13
2018-12-05T15:00:20.038Z,31.80
2018-12-05T15:02:49.302Z,37.37
2018-12-05T15:05:18.923Z,27.77
2018-12-05T15:07:48.436Z,34.67
2018-12-05T15:10:17.770Z,31.10
2018-12-05T15:12:50.624Z,30.67
2018-12-05T15:15:20.217Z,30.73
2018-12-05T15:17:49.520Z,32.90
2018-12-05T15:20:19.003Z,34.10
2018-12-05T15:22:48.488Z,36.27
2018-12-05T15:25:17.752Z,35.90
2018-12-05T15:27:47.277Z,30.43
2018-12-05T15:30:16.683Z,31.93
2018-12-05T15:32:46.317Z,35.83
2018-12-05T15:35:15.951Z,38.57
2018-12-05T15:37:45.384Z,35.37
2018-12-05T15:40:14.833Z,40.47
2018-12-05T15:42:46.106Z,43.23
2018-12-05T15:45:21.566Z,38.00
2018-12-05T15:47:46.777Z,33.80
2018-12-05T15:50:17.981Z,36.47
2018-12-05T15:52:47.631Z,40.00
2018-12-05T15:55:16.943Z,40.90
2018-12-05T15:57:46.303Z,42.03
2018-12-05T16:00:16.090Z,35.23
2018-12-05T16:02:45.659Z,36.33
2018-12-05T16:05:15.101Z,38.47
2018-12-05T16:07:44.429Z,37.27
2018-12-05T16:10:14.345Z,43.33
2018-12-05T16:12:43.648Z,31.07
2018-12-05T16:15:12.953Z,39.73
2018-12-05T16:17:42.419Z,41.60
2018-12-05T16:20:11.881Z,40.73
2018-12-05T16:22:41.253Z,43.20
2018-12-05T16:25:10.991Z,44.73
2018-12-05T16:27:40.423Z,40.17
2018-12-05T16:30:10.188Z,44.57
2018-12-05T16:32:39.504Z,39.87
2018-12-05T16:35:09.196Z,46.83
2018-12-05T16:37:38.509Z,45.37
2018-12-05T16:40:07.913Z,44.50
2018-12-05T16:42:37.215Z,46.67
2018-12-05T16:45:07.600Z,49.47
2018-12-05T16:47:36.914Z,42.97
2018-12-05T16:50:06.962Z,45.47
2018-12-05T16:52:37.340Z,45.43
2018-12-05T16:55:06.864Z,47.43
2018-12-05T16:57:36.316Z,44.03
2018-12-05T17:00:07.639Z,45.93
2018-12-05T17:02:37.806Z,43.23
2018-12-05T17:05:08.192Z,40.33
2018-12-05T17:07:37.708Z,40.80
2018-12-05T17:10:07.926Z,41.90
2018-12-05T17:12:37.281Z,45.30
2018-12-05T17:15:06.816Z,41.60
2018-12-05T17:17:36.202Z,54.03
2018-12-05T17:20:05.846Z,43.57
2018-12-05T17:22:35.200Z,45.00
2018-12-05T17:25:05.754Z,39.37
2018-12-05T17:27:35.181Z,50.23
2018-12-05T17:30:05.894Z,42.17
2018-12-05T17:32:35.217Z,48.07
2018-12-05T17:35:05.184Z,44.77
2018-12-05T17:37:34.490Z,53.97
2018-12-05T17:40:04.484Z,51.93
2018-12-05T17:42:33.941Z,50.97
2018-12-05T17:45:04.142Z,47.47
2018-12-05T17:47:33.736Z,47.73
2018-12-05T17:50:03.445Z,54.83
2018-12-05T17:52:32.866Z,48.63
2018-12-05T17:55:02.202Z,49.37
2018-12-05T17:57:31.521Z,49.13
2018-12-05T18:00:01.285Z,46.03
2018-12-05T18:02:31.110Z,54.87
2018-12-05T18:05:00.535Z,59.33
2018-12-05T18:07:29.913Z,59.90
2018-12-05T18:09:59.482Z,58.50
2018-12-05T18:12:28.822Z,53.63
2018-12-05T18:14:58.428Z,54.87
2018-12-05T18:17:27.827Z,62.60
2018-12-05T18:19:57.434Z,56.17
2018-12-05T18:22:26.785Z,62.27
2018-12-05T18:24:56.575Z,67.83
2018-12-05T18:27:25.904Z,58.17
2018-12-05T18:29:55.444Z,59.43
2018-12-05T18:32:24.807Z,60.23
2018-12-05T18:34:54.515Z,61.23
2018-12-05T18:37:23.985Z,51.27
2018-12-05T18:39:53.405Z,62.27
2018-12-05T18:42:22.885Z,65.07
2018-12-05T18:44:52.379Z,64.17
2018-12-05T18:47:21.683Z,64.13
2018-12-05T18:49:51.404Z,60.30
2018-12-05T18:52:20.822Z,70.83
2018-12-05T18:54:50.495Z,71.80
2018-12-05T18:57:19.853Z,68.03
2018-12-05T18:59:49.496Z,68.60
2018-12-05T19:02:18.863Z,69.70
2018-12-05T19:04:48.180Z,69.03
2018-12-05T19:07:17.516Z,69.77
2018-12-05T19:09:47.441Z,67.73
2018-12-05T19:12:16.997Z,65.90
2018-12-05T19:14:47.013Z,68.10
2018-12-05T19:17:16.500Z,65.73
2018-12-05T19:19:46.069Z,73.10
2018-12-05T19:22:15.304Z,62.70
2018-12-05T19:24:44.774Z,77.07
2018-12-05T19:27:14.321Z,72.97
2018-12-05T19:29:44.249Z,86.60
2018-12-05T19:32:13.561Z,80.90
2018-12-05T19:37:15.628Z,71.40
2018-12-05T19:39:45.927Z,72.93
2018-12-05T19:42:15.563Z,80.30
2018-12-05T19:44:46.074Z,88.50
2018-12-05T19:47:15.821Z,78.17
2018-12-05T19:49:45.513Z,79.13
2018-12-05T19:52:15.473Z,70.40
2018-12-05T19:54:45.086Z,73.10
2018-12-05T19:57:14.946Z,78.53
2018-12-05T19:59:44.427Z,74.57
2018-12-05T20:02:14.136Z,72.57
2018-12-05T20:04:44.101Z,67.60
2018-12-05T20:07:13.978Z,73.07
2018-12-05T20:09:43.343Z,77.07
2018-12-05T20:12:13.014Z,70.60
2018-12-05T20:14:42.603Z,72.50
2018-12-05T20:17:12.209Z,77.93
2018-12-05T20:19:41.596Z,66.03
2018-12-05T20:22:11.397Z,74.30
2018-12-05T20:24:41.294Z,75.40
2018-12-05T20:27:11.066Z,72.40
2018-12-05T20:29:40.555Z,71.63
2018-12-05T20:32:10.165Z,73.23
2018-12-05T20:34:40.323Z,68.13
2018-12-05T20:40:10.934Z,69.33
2018-12-05T20:42:40.450Z,67.27
2018-12-05T20:45:10.340Z,62.37
2018-12-05T20:47:39.874Z,71.03
2018-12-05T20:50:10.176Z,72.07
2018-12-05T20:52:39.742Z,73.40
2018-12-05T20:55:09.807Z,67.73
2018-12-05T20:57:39.137Z,70.33
2018-12-05T21:00:09.173Z,68.40
2018-12-05T21:02:38.647Z,75.97
2018-12-05T21:05:08.432Z,73.57
2018-12-05T21:10:13.640Z,74.83
2018-12-05T21:12:43.088Z,72.40
2018-12-05T21:15:12.974Z,76.20
2018-12-05T21:17:42.469Z,74.07
2018-12-05T21:20:12.110Z,74.73
2018-12-05T21:22:47.077Z,79.90
2018-12-05T21:25:13.128Z,77.13
2018-12-05T21:27:42.596Z,71.23
2018-12-05T21:30:12.100Z,64.77
2018-12-05T21:32:41.813Z,71.87
2018-12-05T21:35:11.589Z,64.40
2018-12-05T21:37:40.957Z,70.90
2018-12-05T21:40:10.360Z,70.77
2018-12-05T21:42:39.765Z,70.63
2018-12-05T21:45:09.311Z,69.40
2018-12-05T21:47:38.645Z,81.43
2018-12-05T21:50:08.596Z,78.73
2018-12-05T21:52:38.069Z,66.23
2018-12-05T21:55:08.134Z,64.97
2018-12-05T21:57:37.498Z,79.60
2018-12-05T22:00:10.492Z,74.27
2018-12-05T22:02:39.857Z,92.53
2018-12-05T22:05:09.855Z,131.93
2018-12-05T22:07:39.196Z,111.77
2018-12-05T22:10:10.133Z,139.30
2018-12-05T22:12:39.534Z,141.57
2018-12-05T22:15:09.587Z,129.03
2018-12-05T22:17:38.985Z,89.70
2018-12-05T22:20:09.664Z,119.80
2018-12-05T22:22:38.972Z,88.53
2018-12-05T22:25:08.564Z,97.07
2018-12-05T22:27:38.104Z,89.60
2018-12-05T22:30:09.205Z,96.13
2018-12-05T22:32:38.673Z,116.97
2018-12-05T22:35:08.373Z,175.97
2018-12-05T22:37:37.950Z,87.97
2018-12-05T22:40:08.657Z,74.37
2018-12-05T22:42:38.102Z,78.63
2018-12-05T22:45:07.433Z,86.87
2018-12-05T22:47:36.737Z,83.50
2018-12-05T22:50:07.259Z,79.53
2018-12-05T22:52:36.469Z,79.87
2018-12-05T22:55:06.243Z,78.40
2018-12-05T22:57:35.573Z,79.10
2018-12-05T23:00:07.998Z,72.60
2018-12-05T23:02:39.243Z,70.27
2018-12-05T23:05:08.527Z,69.70
2018-12-05T23:07:38.078Z,97.63
2018-12-05T23:10:07.827Z,104.47
2018-12-05T23:12:37.203Z,96.20
2018-12-05T23:15:06.924Z,100.53
2018-12-05T23:17:36.360Z,128.23
2018-12-05T23:20:06.809Z,120.83
2018-12-05T23:22:36.230Z,86.80
2018-12-05T23:25:06.204Z,83.30
2018-12-05T23:27:35.478Z,83.07
2018-12-05T23:30:06.330Z,77.87
2018-12-05T23:32:35.666Z,86.13
2018-12-05T23:35:05.634Z,88.87
2018-12-05T23:37:34.910Z,93.60
2018-12-05T23:40:04.854Z,94.33
2018-12-05T23:42:34.162Z,78.53
2018-12-05T23:45:03.650Z,76.23
2018-12-05T23:47:32.888Z,99.73
2018-12-05T23:50:03.348Z,83.07
2018-12-05T23:52:32.826Z,85.70
2018-12-05T23:55:02.428Z,86.47
2018-12-05T23:57:31.706Z,72.60
